Strona główna
METAR-TAF:

METAR-TAF

Lotnisko :

Yeovilton, Anglia

Szerokość geograficzna: 51-00N, Długość geograficzna: 002-38W, wysokość: 23 m

Aktualna obserwacja pogody

Raport powstał 49 minut temu, godzina 08:50 UTC
Wiatr 1 kt od południowo-południowy wschód
Temperatura 18°C
Wilgotność 68%
Ciśnienie 1029 hPa
Widzialność 10 km lub więcej

METAR: EGDY 120850Z AUTO 16001KT 9999 NCD 18/12 Q1029

czas: 10:39 (09:39 UTC)


TAF: brakujący

Obserwacja i prognoza pogody dla ponad 4000 lotnisk (raport METAR i TAF).

Dostępne stacje oznaczono żółtymi i czerwonymi punktami na mapie.

Najedź kursorem aby zobaczyć nazwę stacji.

Kliknij aby zobaczyć obserwacje i prognozy pogody.

Aby zmienić mapę: kliknij na zielony przycisk z czarnym krzyżykiem, aby powiększyć; na zielony przycisk z myślnikiem, aby pomniejszyć; na zielone strzałki, aby przejść do map sąsiednich.


METAR-TAF: